Time;durP1;ratioP1;P1;durP2;ratioP2;P2;SDS_P1;SDS_P2;PMS_P1;PMS_P2;Temp;Humidity;BMP_temperature;BMP_pressure;BME280_temperature;BME280_humidity;BME280_pressure;Samples;Min_cycle;Max_cycle;Signal;HPM_P1;HPM_P2
2019/07/25 00:00:19;;;;;;;9.2;5.2;;;;;;;30.88;37.51172;1001.713;;;;
2019/07/25 00:02:41;;;;;;;6.7;5.1;;;;;;;30.99;37.43457;1001.742;;;;
2019/07/25 00:05:07;;;;;;;9.4;5.3;;;;;;;31.35;36.74023;1001.713;;;;
2019/07/25 00:08:27;;;;;;;11.2;5.5;;;;;;;31.6;36.20703;1001.731;;;;
2019/07/25 00:08:52;;;;;;;7.8;5;;;;;;;31.59;36.25586;1001.743;;;;
2019/07/25 00:11:17;;;;;;;8.7;5;;;;;;;31.67;36.16406;1001.732;;;;
2019/07/25 00:13:42;;;;;;;7.8;5.3;;;;;;;31.82;35.80664;1001.739;;;;
2019/07/25 00:17:01;;;;;;;6.5;4.7;;;;;;;31.9;35.78809;1001.757;;;;
2019/07/25 00:19:27;;;;;;;6.9;4.8;;;;;;;32.04;35.54199;1001.742;;;;
2019/07/25 00:21:52;;;;;;;7.5;4.8;;;;;;;32.18;35.34375;1001.734;;;;
2019/07/25 00:24:17;;;;;;;7.1;5;;;;;;;32.3;35.39063;1001.688;;;;
2019/07/25 00:26:43;;;;;;;5.8;4.7;;;;;;;32.32;35.16992;1001.719;;;;
2019/07/25 00:29:08;;;;;;;7.1;4.9;;;;;;;32.44;35.17871;1001.74;;;;
2019/07/25 00:31:33;;;;;;;8.5;4.6;;;;;;;32.28;35.26465;1001.697;;;;
2019/07/25 00:34:52;;;;;;;5.6;4.7;;;;;;;32.24;35.31152;1001.739;;;;
2019/07/25 00:37:17;;;;;;;7.8;5.1;;;;;;;32.32;35.14551;1001.703;;;;
2019/07/25 00:40:36;;;;;;;6.7;4.9;;;;;;;32.42;34.96777;1001.706;;;;
2019/07/25 00:43:01;;;;;;;6.1;4.7;;;;;;;32.47;34.87305;1001.685;;;;
2019/07/25 00:46:21;;;;;;;6.1;4.6;;;;;;;32.53;34.72949;1001.74;;;;
2019/07/25 00:48:46;;;;;;;6.1;4.7;;;;;;;32.56;34.63379;1001.737;;;;
2019/07/25 00:52:06;;;;;;;8.3;4.5;;;;;;;32.6;34.55078;1001.726;;;;
2019/07/25 00:54:31;;;;;;;6.3;4.5;;;;;;;32.62;34.51465;1001.726;;;;
2019/07/25 00:56:56;;;;;;;6.6;4.7;;;;;;;32.66;34.44434;1001.762;;;;
2019/07/25 00:59:21;;;;;;;6.6;4.8;;;;;;;32.65;34.39551;1001.768;;;;
2019/07/25 01:02:40;;;;;;;6.1;4.9;;;;;;;32.66;34.3584;1001.732;;;;
2019/07/25 01:05:05;;;;;;;6.4;4.9;;;;;;;32.68;34.31055;1001.724;;;;
2019/07/25 01:07:30;;;;;;;5.7;4.6;;;;;;;32.67;34.30957;1001.733;;;;
2019/07/25 01:09:56;;;;;;;5.9;5.1;;;;;;;32.66;34.3457;1001.711;;;;
2019/07/25 01:12:21;;;;;;;7.6;5.1;;;;;;;32.67;34.28418;1001.7;;;;
2019/07/25 01:14:46;;;;;;;8.6;5.2;;;;;;;32.68;34.26074;1001.745;;;;
2019/07/25 01:17:11;;;;;;;5.5;4.7;;;;;;;32.69;34.22461;1001.771;;;;
2019/07/25 01:19:36;;;;;;;7.1;5.2;;;;;;;32.69;34.22461;1001.796;;;;
2019/07/25 01:22:55;;;;;;;6;5;;;;;;;32.7;34.21387;1001.797;;;;
2019/07/25 01:25:21;;;;;;;6.7;4.9;;;;;;;32.7;34.2373;1001.808;;;;
2019/07/25 01:27:46;;;;;;;8.3;5.1;;;;;;;32.68;34.24902;1001.789;;;;
2019/07/25 01:28:10;;;;;;;6.1;5.1;;;;;;;32.69;34.24902;1001.795;;;;
2019/07/25 01:30:35;;;;;;;7.1;5.1;;;;;;;32.69;34.31055;1001.802;;;;
2019/07/25 01:33:00;;;;;;;6.1;4.9;;;;;;;32.68;34.40918;1001.794;;;;
2019/07/25 01:35:25;;;;;;;7.2;5.1;;;;;;;32.67;34.56836;1001.829;;;;
2019/07/25 01:37:51;;;;;;;6.3;4.9;;;;;;;32.63;34.62695;1001.855;;;;
2019/07/25 01:40:16;;;;;;;6.9;4.9;;;;;;;32.6;34.77246;1001.888;;;;
2019/07/25 01:42:41;;;;;;;7.7;4.8;;;;;;;32.55;34.71973;1001.872;;;;
2019/07/25 01:45:06;;;;;;;7.3;4.9;;;;;;;32.53;34.80469;1001.866;;;;
2019/07/25 01:47:32;;;;;;;6.1;5.1;;;;;;;32.52;34.72949;1001.887;;;;
2019/07/25 01:49:57;;;;;;;8.1;4.9;;;;;;;32.55;34.6582;1001.903;;;;
2019/07/25 01:52:22;;;;;;;5.3;4.7;;;;;;;32.59;34.64844;1001.899;;;;
2019/07/25 01:54:47;;;;;;;7;4.9;;;;;;;32.54;34.73145;1001.872;;;;
2019/07/25 01:57:12;;;;;;;7.8;4.8;;;;;;;32.48;34.80078;1001.843;;;;
2019/07/25 01:59:38;;;;;;;7.1;4.8;;;;;;;32.43;35.01758;1001.831;;;;
2019/07/25 02:02:03;;;;;;;6;4.8;;;;;;;32.4;35.04004;1001.814;;;;
2019/07/25 02:04:28;;;;;;;6.2;4.5;;;;;;;32.4;34.94141;1001.827;;;;
2019/07/25 02:06:54;;;;;;;6.9;5.2;;;;;;;32.4;34.85547;1001.83;;;;
2019/07/25 02:09:19;;;;;;;6.6;5.1;;;;;;;32.41;34.83203;1001.846;;;;
2019/07/25 02:11:44;;;;;;;7.5;5;;;;;;;32.43;34.90723;1001.831;;;;
2019/07/25 02:14:09;;;;;;;6.8;4.9;;;;;;;32.41;35.00391;1001.805;;;;
2019/07/25 02:16:35;;;;;;;6.7;5;;;;;;;32.39;35.00195;1001.812;;;;
2019/07/25 02:19:00;;;;;;;8.9;4.9;;;;;;;32.39;34.92871;1001.768;;;;
2019/07/25 02:21:25;;;;;;;6.6;4.8;;;;;;;32.38;35.08887;1001.749;;;;
2019/07/25 02:23:50;;;;;;;6.8;5.1;;;;;;;32.35;35.12305;1001.778;;;;
2019/07/25 02:26:15;;;;;;;6.2;4.7;;;;;;;32.34;35.14648;1001.787;;;;
2019/07/25 02:28:41;;;;;;;5.8;4.7;;;;;;;32.35;34.9375;1001.806;;;;
2019/07/25 02:31:06;;;;;;;5.5;4.9;;;;;;;32.35;34.98828;1001.795;;;;
2019/07/25 02:33:31;;;;;;;6.7;4.9;;;;;;;32.37;35.0498;1001.798;;;;
2019/07/25 02:36:50;;;;;;;6.6;4.8;;;;;;;32.3;35.20508;1001.817;;;;
2019/07/25 02:39:16;;;;;;;7.2;4.6;;;;;;;32.24;35.28711;1001.825;;;;
2019/07/25 02:39:35;;;;;;;6.3;4.8;;;;;;;32.25;35.20117;1001.818;;;;
2019/07/25 02:42:00;;;;;;;5;4.5;;;;;;;32.25;35.11426;1001.865;;;;
2019/07/25 02:44:25;;;;;;;5.6;4.7;;;;;;;32.26;35.11621;1001.876;;;;
2019/07/25 02:46:51;;;;;;;6.4;4.7;;;;;;;32.27;35.23926;1001.9;;;;
2019/07/25 02:50:10;;;;;;;7.3;4.7;;;;;;;32.23;35.33496;1001.863;;;;
2019/07/25 02:54:23;;;;;;;6.7;5.3;;;;;;;32.18;35.50293;1001.871;;;;
2019/07/25 02:56:48;;;;;;;8.4;5.3;;;;;;;32.1;35.55859;1001.843;;;;
2019/07/25 02:59:15;;;;;;;6.7;5.1;;;;;;;32.12;35.47363;1001.875;;;;
2019/07/25 03:01:38;;;;;;;6.3;4.7;;;;;;;32.13;35.4502;1001.88;;;;
2019/07/25 03:02:27;;;;;;;7.6;4.8;;;;;;;32.14;35.46289;1001.917;;;;
2019/07/25 03:04:52;;;;;;;6.7;5.2;;;;;;;32.13;35.52344;1001.907;;;;
2019/07/25 03:07:17;;;;;;;9.7;5.2;;;;;;;32.07;35.71582;1001.911;;;;
2019/07/25 03:09:43;;;;;;;6.6;4.9;;;;;;;31.97;35.79492;1001.926;;;;
2019/07/25 03:12:08;;;;;;;12.6;4.8;;;;;;;31.97;35.7334;1001.925;;;;
2019/07/25 03:14:33;;;;;;;7.3;5.1;;;;;;;31.99;35.71094;1001.903;;;;
2019/07/25 03:16:59;;;;;;;5.7;4.7;;;;;;;31.97;35.77051;1001.902;;;;
2019/07/25 03:19:24;;;;;;;6.5;4.9;;;;;;;31.97;35.6582;1001.911;;;;
2019/07/25 03:21:49;;;;;;;6.6;4.8;;;;;;;31.97;35.63477;1001.949;;;;
2019/07/25 03:24:15;;;;;;;5.4;4.6;;;;;;;31.98;35.62207;1001.971;;;;
2019/07/25 03:26:40;;;;;;;5.1;4.6;;;;;;;31.99;35.57422;1001.94;;;;
2019/07/25 03:29:05;;;;;;;7;4.8;;;;;;;32;35.53809;1001.966;;;;
2019/07/25 03:31:30;;;;;;;8.1;4.9;;;;;;;31.98;35.58594;1001.981;;;;
2019/07/25 03:33:56;;;;;;;5.6;4.7;;;;;;;31.98;35.53613;1001.978;;;;
2019/07/25 03:36:21;;;;;;;5.8;4.9;;;;;;;31.99;35.50098;1002.002;;;;
2019/07/25 03:38:46;;;;;;;6;4.7;;;;;;;32;35.48926;1002.038;;;;
2019/07/25 03:42:05;;;;;;;6.7;4.7;;;;;;;31.99;35.31641;1002.045;;;;
2019/07/25 03:44:30;;;;;;;11.9;5.3;;;;;;;31.9;35.32129;1002.056;;;;
2019/07/25 03:46:55;;;;;;;5.4;4.9;;;;;;;31.74;35.8877;1002.012;;;;
2019/07/25 03:49:21;;;;;;;5.2;4.7;;;;;;;31.76;35.79004;1001.99;;;;
2019/07/25 03:51:46;;;;;;;6;4.5;;;;;;;31.8;35.75586;1002.006;;;;
2019/07/25 03:55:05;;;;;;;7.9;4.8;;;;;;;31.83;35.70996;1002.03;;;;
2019/07/25 03:57:30;;;;;;;7.9;5;;;;;;;31.84;35.70996;1002.009;;;;
2019/07/25 03:59:56;;;;;;;8.6;5;;;;;;;31.81;35.76953;1002.046;;;;
2019/07/25 04:02:21;;;;;;;10.2;5.7;;;;;;;31.75;35.87598;1002.01;;;;
2019/07/25 04:04:46;;;;;;;8.2;5.1;;;;;;;31.73;35.84961;1002.032;;;;
2019/07/25 04:08:05;;;;;;;8.4;4.9;;;;;;;31.75;35.80176;1002.091;;;;
2019/07/25 04:11:24;;;;;;;6.8;4.9;;;;;;;31.79;35.74316;1002.13;;;;
2019/07/25 04:13:49;;;;;;;7.2;4.9;;;;;;;31.8;35.70703;1002.115;;;;
2019/07/25 04:17:08;;;;;;;5.5;4.9;;;;;;;31.8;35.70801;1002.143;;;;
2019/07/25 04:19:33;;;;;;;5.1;4.5;;;;;;;31.78;35.71777;1002.176;;;;
2019/07/25 04:21:59;;;;;;;7.8;4.9;;;;;;;31.79;35.71875;1002.212;;;;
2019/07/25 04:24:24;;;;;;;7.1;4.9;;;;;;;31.8;35.69531;1002.176;;;;
2019/07/25 04:26:49;;;;;;;6.2;5.2;;;;;;;31.79;35.69434;1002.231;;;;
2019/07/25 04:30:07;;;;;;;7.2;5.8;;;;;;;31.74;35.89941;1002.23;;;;
2019/07/25 04:32:33;;;;;;;9.1;5.3;;;;;;;31.69;35.91895;1002.246;;;;
2019/07/25 04:34:58;;;;;;;9.2;5.6;;;;;;;31.63;36.02539;1002.3;;;;
2019/07/25 04:35:07;;;;;;;7.6;5.5;;;;;;;31.62;36.06152;1002.311;;;;
2019/07/25 04:37:33;;;;;;;8.4;5;;;;;;;31.55;36.19238;1002.284;;;;
2019/07/25 04:39:58;;;;;;;8.3;5.1;;;;;;;31.57;36.11914;1002.29;;;;
2019/07/25 04:42:24;;;;;;;9.4;5.3;;;;;;;31.6;36.04785;1002.307;;;;
2019/07/25 04:44:49;;;;;;;8.8;5.2;;;;;;;31.49;36.33301;1002.325;;;;
2019/07/25 04:47:14;;;;;;;10;5.7;;;;;;;31.45;36.36719;1002.344;;;;
2019/07/25 04:49:40;;;;;;;7.9;5.2;;;;;;;31.38;36.5459;1002.369;;;;
2019/07/25 04:52:05;;;;;;;7.4;5.2;;;;;;;31.29;36.75977;1002.381;;;;
2019/07/25 04:54:30;;;;;;;8.2;5.2;;;;;;;31.27;36.7334;1002.385;;;;
2019/07/25 04:56:56;;;;;;;8.1;5.2;;;;;;;31.26;36.75781;1002.426;;;;
2019/07/25 04:59:21;;;;;;;10.2;5.3;;;;;;;31.31;36.7002;1002.449;;;;
2019/07/25 05:01:47;;;;;;;8.2;5.1;;;;;;;31.3;36.77246;1002.449;;;;
2019/07/25 05:04:12;;;;;;;12.4;5.2;;;;;;;31.26;36.88086;1002.441;;;;
2019/07/25 05:06:38;;;;;;;7.1;5.4;;;;;;;31.23;36.52246;1002.455;;;;
2019/07/25 05:09:04;;;;;;;6.2;5.2;;;;;;;30.86;37.26563;1002.445;;;;
2019/07/25 05:11:28;;;;;;;7.8;5.5;;;;;;;30.65;37.37109;1002.419;;;;
2019/07/25 05:14:48;;;;;;;9.9;5.5;;;;;;;30.25;38.21973;1002.463;;;;
2019/07/25 05:17:13;;;;;;;7.4;5.3;;;;;;;30.1;38.67285;1002.447;;;;
2019/07/25 05:19:38;;;;;;;6.7;5.2;;;;;;;30.2;38.68066;1002.452;;;;
2019/07/25 05:22:57;;;;;;;8.4;5.2;;;;;;;30.43;38.18652;1002.433;;;;
2019/07/25 05:25:22;;;;;;;8.5;5.6;;;;;;;30.64;37.57813;1002.393;;;;
2019/07/25 05:27:47;;;;;;;7.9;5.2;;;;;;;30.61;37.6123;1002.448;;;;
2019/07/25 05:30:13;;;;;;;7.9;5.1;;;;;;;30.63;37.66309;1002.454;;;;
2019/07/25 05:32:38;;;;;;;7.8;5.6;;;;;;;30.78;37.24609;1002.449;;;;
2019/07/25 05:33:10;;;;;;;7.9;5.5;;;;;;;30.82;37.10254;1002.454;;;;
2019/07/25 05:35:36;;;;;;;10.6;5.4;;;;;;;30.78;37.08691;1002.449;;;;
2019/07/25 05:40:00;;;;;;;10.1;6.1;;;;;;;29.45;38.94727;1002.456;;;;
2019/07/25 05:42:25;;;;;;;10.4;5.5;;;;;;;30.01;38.21191;1002.464;;;;
2019/07/25 05:44:50;;;;;;;14.1;5.8;;;;;;;30.01;38.01563;1002.468;;;;
2019/07/25 05:47:16;;;;;;;8.9;5.4;;;;;;;30.34;37.83496;1002.504;;;;
2019/07/25 05:49:41;;;;;;;9.2;5.2;;;;;;;30.59;37.26758;1002.484;;;;
2019/07/25 05:52:07;;;;;;;9.3;5.8;;;;;;;30.3;36.96191;1002.525;;;;
2019/07/25 05:54:32;;;;;;;9.4;5.5;;;;;;;30.36;37.4082;1002.604;;;;
2019/07/25 05:56:57;;;;;;;10.1;5.5;;;;;;;30.54;36.93262;1002.607;;;;
2019/07/25 05:59:22;;;;;;;9.5;5.1;;;;;;;30.39;37.20215;1002.572;;;;
2019/07/25 06:01:48;;;;;;;8.7;5.3;;;;;;;30.35;37.28516;1002.574;;;;
2019/07/25 06:04:13;;;;;;;7.9;5.1;;;;;;;30.76;36.69238;1002.53;;;;
2019/07/25 06:06:38;;;;;;;12.3;5.5;;;;;;;30.86;36.2832;1002.556;;;;
2019/07/25 06:09:04;;;;;;;8.6;4.8;;;;;;;30.63;36.49805;1002.577;;;;
2019/07/25 06:11:29;;;;;;;7.2;5.2;;;;;;;30.82;36.08398;1002.59;;;;
2019/07/25 06:13:54;;;;;;;10.7;5.1;;;;;;;31.13;35.58105;1002.611;;;;
2019/07/25 06:16:19;;;;;;;6.9;5;;;;;;;30.93;35.96973;1002.63;;;;
2019/07/25 06:18:45;;;;;;;10.8;6.2;;;;;;;31.07;35.8457;1002.587;;;;
2019/07/25 06:21:10;;;;;;;11.5;6.2;;;;;;;30.9;35.88184;1002.581;;;;
2019/07/25 06:23:35;;;;;;;10.6;5.1;;;;;;;31.24;35.83496;1002.574;;;;
2019/07/25 06:26:00;;;;;;;9.6;5.2;;;;;;;31.14;35.86426;1002.615;;;;
2019/07/25 06:28:26;;;;;;;9.3;5.5;;;;;;;31.5;35.35156;1002.614;;;;
2019/07/25 06:30:51;;;;;;;7.5;5;;;;;;;31.25;35.24609;1002.577;;;;
2019/07/25 06:34:10;;;;;;;10.7;5.5;;;;;;;31.59;34.83008;1002.634;;;;
2019/07/25 06:36:35;;;;;;;12.8;5.6;;;;;;;30.55;36.00098;1002.63;;;;
2019/07/25 06:39:01;;;;;;;11;5.4;;;;;;;31.09;35.39355;1002.656;;;;
2019/07/25 06:41:26;;;;;;;9.9;5.1;;;;;;;30.74;36.31055;1002.71;;;;
2019/07/25 06:43:51;;;;;;;9.5;5.5;;;;;;;31.51;35.18066;1002.665;;;;
2019/07/25 06:44:00;;;;;;;10.9;5.3;;;;;;;31.56;35.0127;1002.658;;;;
2019/07/25 06:46:26;;;;;;;8.9;5.2;;;;;;;31.53;34.64063;1002.673;;;;
2019/07/25 06:49:45;;;;;;;9.1;5.1;;;;;;;31.91;33.68652;1002.672;;;;
2019/07/25 06:52:11;;;;;;;10.4;5.6;;;;;;;31.62;34.11914;1002.699;;;;
2019/07/25 06:54:36;;;;;;;9;5.4;;;;;;;32.01;33.79297;1002.688;;;;
2019/07/25 06:57:01;;;;;;;11.9;5;;;;;;;31.98;34.24512;1002.689;;;;
2019/07/25 06:59:27;;;;;;;11.9;6;;;;;;;31.97;34.6875;1002.661;;;;
2019/07/25 07:01:52;;;;;;;12.4;5.4;;;;;;;32.19;34.28516;1002.643;;;;
2019/07/25 07:04:17;;;;;;;9.7;5.7;;;;;;;32.34;34.0625;1002.611;;;;
2019/07/25 07:06:42;;;;;;;10;5.7;;;;;;;32.1;34.59863;1002.557;;;;
2019/07/25 07:09:08;;;;;;;8.5;5.6;;;;;;;31.71;35.20801;1002.588;;;;
2019/07/25 07:11:33;;;;;;;8.4;5;;;;;;;32.12;34.42773;1002.583;;;;
2019/07/25 07:13:58;;;;;;;10.7;5.8;;;;;;;32.26;33.99512;1002.587;;;;
2019/07/25 07:16:24;;;;;;;10;5.6;;;;;;;31.25;35.66406;1002.619;;;;
2019/07/25 07:18:49;;;;;;;9.4;5.7;;;;;;;31.72;34.93848;1002.65;;;;
2019/07/25 07:21:14;;;;;;;10.8;5.5;;;;;;;32.18;33.95313;1002.607;;;;
2019/07/25 07:23:39;;;;;;;10.5;6.8;;;;;;;32.69;33.38672;1002.591;;;;
2019/07/25 07:26:05;;;;;;;12.8;6.3;;;;;;;32.55;33.58691;1002.578;;;;
2019/07/25 07:26:52;;;;;;;11.4;6.4;;;;;;;32.76;33.28223;1002.57;;;;
2019/07/25 07:30:11;;;;;;;13.9;5.8;;;;;;;32.47;33.64258;1002.575;;;;
2019/07/25 07:32:36;;;;;;;10.9;5.9;;;;;;;32.43;33.89746;1002.602;;;;
2019/07/25 07:35:01;;;;;;;14.5;7.5;;;;;;;32.87;33.06738;1002.567;;;;
2019/07/25 07:38:20;;;;;;;14.2;6.7;;;;;;;32.79;32.77734;1002.595;;;;
2019/07/25 07:40:45;;;;;;;12.9;5.9;;;;;;;32.09;33.74902;1002.535;;;;
2019/07/25 07:43:10;;;;;;;11.4;6.1;;;;;;;32.85;32.98047;1002.597;;;;
2019/07/25 07:45:35;;;;;;;12.3;6;;;;;;;32.61;32.97461;1002.571;;;;
2019/07/25 07:48:01;;;;;;;10.3;6.8;;;;;;;33.21;32.37695;1002.576;;;;
2019/07/25 07:50:26;;;;;;;9.2;5.7;;;;;;;32.83;32.74512;1002.579;;;;
2019/07/25 07:52:51;;;;;;;10.2;5.8;;;;;;;32.58;33.24316;1002.547;;;;
2019/07/25 07:55:17;;;;;;;14;6.1;;;;;;;32.82;33.00195;1002.54;;;;
2019/07/25 07:57:42;;;;;;;14.5;6.2;;;;;;;32.73;33.37793;1002.522;;;;
2019/07/25 08:00:08;;;;;;;13.8;6.2;;;;;;;33.19;32.7207;1002.548;;;;
2019/07/25 08:03:27;;;;;;;12.5;6.5;;;;;;;33.18;32.31348;1002.552;;;;
2019/07/25 08:05:52;;;;;;;12.7;5.6;;;;;;;33.19;32.51172;1002.523;;;;
2019/07/25 08:08:17;;;;;;;10.6;5.6;;;;;;;32.76;32.83789;1002.484;;;;
2019/07/25 08:10:43;;;;;;;13.3;5.9;;;;;;;32.8;33.01367;1002.45;;;;
2019/07/25 08:13:08;;;;;;;10.3;5.5;;;;;;;33.29;32.72852;1002.412;;;;
2019/07/25 08:15:33;;;;;;;12.5;5.6;;;;;;;32.86;33.18945;1002.421;;;;
2019/07/25 08:15:45;;;;;;;10.1;5.6;;;;;;;32.81;33.24707;1002.412;;;;
2019/07/25 08:18:11;;;;;;;19.4;9.6;;;;;;;33.55;32.22852;1002.407;;;;
2019/07/25 08:21:29;;;;;;;16.7;6.5;;;;;;;33.23;32.86035;1002.344;;;;
2019/07/25 08:23:54;;;;;;;16.5;6.5;;;;;;;32.74;33.625;1002.382;;;;
2019/07/25 08:26:20;;;;;;;15.2;5.7;;;;;;;32.44;34.53809;1002.351;;;;
2019/07/25 08:26:46;;;;;;;11.6;5.4;;;;;;;32.35;34.75391;1002.339;;;;
2019/07/25 08:29:11;;;;;;;16.7;5.5;;;;;;;32.97;33.60449;1002.359;;;;
2019/07/25 08:31:37;;;;;;;11.7;5.2;;;;;;;33.1;33.12109;1002.368;;;;
2019/07/25 08:34:02;;;;;;;11.4;5.7;;;;;;;33.23;32.68652;1002.306;;;;
2019/07/25 08:36:27;;;;;;;9.7;5.5;;;;;;;33.47;32.16113;1002.305;;;;
2019/07/25 08:38:53;;;;;;;16.6;6;;;;;;;32.97;33.51855;1002.292;;;;
2019/07/25 08:41:18;;;;;;;12.8;6;;;;;;;33.25;33.09473;1002.253;;;;
2019/07/25 08:43:43;;;;;;;11.5;5.4;;;;;;;32.98;33.56836;1002.283;;;;
2019/07/25 08:46:08;;;;;;;11.3;6.2;;;;;;;33.23;33.15527;1002.285;;;;
2019/07/25 08:48:33;;;;;;;10.9;5.5;;;;;;;33.37;32.63574;1002.21;;;;
2019/07/25 08:48:41;;;;;;;11.6;5.7;;;;;;;33.51;32.52148;1002.264;;;;
2019/07/25 08:51:06;;;;;;;14.5;5.7;;;;;;;33.76;31.9834;1002.265;;;;
2019/07/25 08:53:31;;;;;;;10.9;5.6;;;;;;;33.29;32.13574;1002.172;;;;
2019/07/25 08:55:56;;;;;;;11.3;5.6;;;;;;;33.12;32.12402;1002.158;;;;
2019/07/25 08:58:22;;;;;;;12.3;5.3;;;;;;;33.54;31.7832;1002.152;;;;
2019/07/25 09:01:41;;;;;;;10.4;5.7;;;;;;;33.85;31.58203;1002.148;;;;
2019/07/25 09:04:06;;;;;;;13.6;5.8;;;;;;;33.68;31.99023;1002.08;;;;
2019/07/25 09:06:32;;;;;;;12.4;6;;;;;;;33.76;32.09473;1002.028;;;;
2019/07/25 09:08:57;;;;;;;12.1;6.1;;;;;;;34.43;31.00391;1002.004;;;;
2019/07/25 09:11:24;;;;;;;12.3;6.8;;;;;;;34.59;30.8916;1001.987;;;;
2019/07/25 09:13:50;;;;;;;17.9;9.2;;;;;;;34.88;30.47754;1001.94;;;;
2019/07/25 09:16:15;;;;;;;11;6.6;;;;;;;34.25;32.00586;1002.002;;;;
2019/07/25 09:18:40;;;;;;;12.1;6.5;;;;;;;34.29;31.71191;1001.944;;;;
2019/07/25 09:21:05;;;;;;;12.2;7;;;;;;;34.76;31.02637;1001.887;;;;
2019/07/25 09:23:31;;;;;;;11.6;6.3;;;;;;;34.19;32.32324;1001.92;;;;
2019/07/25 09:25:56;;;;;;;9.9;6.1;;;;;;;34.3;32.40527;1001.878;;;;
2019/07/25 09:30:09;;;;;;;10.5;5.8;;;;;;;34.95;30.9043;1001.825;;;;
2019/07/25 09:32:34;;;;;;;12.7;6.7;;;;;;;34.81;31.17871;1001.83;;;;
2019/07/25 09:34:59;;;;;;;12.7;6.1;;;;;;;34.55;31;1001.801;;;;
2019/07/25 09:37:25;;;;;;;10.7;6.2;;;;;;;35.1;30.46777;1001.745;;;;
2019/07/25 09:41:37;;;;;;;15.4;8;;;;;;;35.43;29.96973;1001.793;;;;
2019/07/25 09:44:02;;;;;;;12.3;6.4;;;;;;;34.93;30.08496;1001.751;;;;
2019/07/25 09:44:23;;;;;;;11.8;6.1;;;;;;;34.76;30.44434;1001.743;;;;
2019/07/25 09:46:49;;;;;;;12.7;6.2;;;;;;;34.59;30.58203;1001.724;;;;
2019/07/25 09:49:14;;;;;;;14.2;5.9;;;;;;;35.33;29.61621;1001.71;;;;
2019/07/25 09:51:40;;;;;;;16.8;7;;;;;;;35.52;29.79004;1001.705;;;;
2019/07/25 09:54:05;;;;;;;14.4;6.6;;;;;;;35.51;29.65234;1001.662;;;;
2019/07/25 09:56:30;;;;;;;11.9;6.2;;;;;;;35.33;29.41797;1001.646;;;;
2019/07/25 09:58:55;;;;;;;18;6.5;;;;;;;35.45;29.36328;1001.674;;;;
2019/07/25 10:01:21;;;;;;;10.3;5.9;;;;;;;35.03;29.06348;1001.63;;;;
2019/07/25 10:03:46;;;;;;;8.6;5.7;;;;;;;34.97;29.33301;1001.602;;;;
2019/07/25 10:06:11;;;;;;;11;5.6;;;;;;;34.86;29.52344;1001.664;;;;
2019/07/25 10:08:36;;;;;;;11.1;5;;;;;;;35.09;29.08008;1001.639;;;;
2019/07/25 10:11:01;;;;;;;11.5;5.1;;;;;;;35.19;29.32227;1001.649;;;;
2019/07/25 10:13:26;;;;;;;10.9;5.4;;;;;;;34.94;29.83789;1001.639;;;;
2019/07/25 10:13:48;;;;;;;10;5.5;;;;;;;34.85;29.93164;1001.668;;;;
2019/07/25 10:16:13;;;;;;;11.3;4.9;;;;;;;35.4;29.13672;1001.63;;;;
2019/07/25 10:16:24;;;;;;;10.4;5;;;;;;;35.36;29.24609;1001.629;;;;
2019/07/25 10:18:48;;;;;;;8.9;5.3;;;;;;;35.14;30.14844;1001.63;;;;
2019/07/25 10:21:15;;;;;;;10.3;5.6;;;;;;;35.21;29.71973;1001.625;;;;
2019/07/25 10:23:47;;;;;;;9.1;5.5;;;;;;;35.75;28.77441;1001.604;;;;
2019/07/25 10:26:09;;;;;;;10.3;6.1;;;;;;;36.07;28.77051;1001.526;;;;
2019/07/25 10:28:35;;;;;;;10.7;5.5;;;;;;;35.84;29.04102;1001.504;;;;
2019/07/25 10:31:00;;;;;;;9.5;5.5;;;;;;;35.8;28.62891;1001.493;;;;
2019/07/25 10:33:26;;;;;;;14;5.1;;;;;;;35.47;29.11621;1001.52;;;;
2019/07/25 10:35:51;;;;;;;17.1;5.1;;;;;;;35.62;29.17578;1001.468;;;;
2019/07/25 10:38:16;;;;;;;9.2;5.3;;;;;;;35.76;29.32031;1001.451;;;;
2019/07/25 10:40:41;;;;;;;11;4.7;;;;;;;35.49;29.41504;1001.389;;;;
2019/07/25 10:43:06;;;;;;;11.9;4.9;;;;;;;35.65;29.28906;1001.346;;;;
2019/07/25 10:45:32;;;;;;;10.5;4.7;;;;;;;35.51;29.08203;1001.308;;;;
2019/07/25 10:48:06;;;;;;;13.2;5.1;;;;;;;35.95;28.91113;1001.257;;;;
2019/07/25 10:51:24;;;;;;;11.3;4.9;;;;;;;35.38;29.38379;1001.247;;;;
2019/07/25 10:53:49;;;;;;;9.5;4.7;;;;;;;35.57;29.28418;1001.258;;;;
2019/07/25 10:56:24;;;;;;;12.1;4.9;;;;;;;35.25;29.70898;1001.269;;;;
2019/07/25 10:58:48;;;;;;;10.5;4.7;;;;;;;35.62;29.08887;1001.246;;;;
2019/07/25 10:59:16;;;;;;;8.8;4.4;;;;;;;35.56;29.10938;1001.242;;;;
2019/07/25 11:01:42;;;;;;;8.4;4.2;;;;;;;35.11;29.3916;1001.205;;;;
2019/07/25 11:04:07;;;;;;;7;4.6;;;;;;;35.44;28.3584;1001.214;;;;
2019/07/25 11:07:26;;;;;;;8.8;4.1;;;;;;;35.3;28.41211;1001.143;;;;
2019/07/25 11:09:51;;;;;;;7.7;3.8;;;;;;;35.17;28.35352;1001.173;;;;
2019/07/25 11:12:16;;;;;;;7;4.2;;;;;;;35.74;27.7207;1001.152;;;;
2019/07/25 11:14:41;;;;;;;10.3;4.4;;;;;;;36.09;27.14551;1001.105;;;;
2019/07/25 11:17:07;;;;;;;10.6;4.5;;;;;;;36.31;27.12109;1001.074;;;;
2019/07/25 11:20:26;;;;;;;10.3;4.9;;;;;;;36.16;27.18652;1001.084;;;;
2019/07/25 11:22:52;;;;;;;11;5.1;;;;;;;36.04;26.22461;1001.109;;;;
2019/07/25 11:25:17;;;;;;;11.9;4.5;;;;;;;35.64;26.87012;1001.04;;;;
2019/07/25 11:27:42;;;;;;;9.2;5.9;;;;;;;36.4;26.62988;1001.001;;;;
2019/07/25 11:30:07;;;;;;;10;4.6;;;;;;;35.94;26.82617;1000.974;;;;
2019/07/25 11:32:35;;;;;;;10.8;5;;;;;;;36.04;26.32324;1001.003;;;;
2019/07/25 11:34:58;;;;;;;14.4;5.8;;;;;;;36.37;26.22949;1000.984;;;;
2019/07/25 11:41:13;;;;;;;10.7;5.4;;;;;;;36.58;26.36621;1000.948;;;;
2019/07/25 11:43:36;;;;;;;13.6;7.2;;;;;;;36.34;26.35352;1000.918;;;;
2019/07/25 11:46:01;;;;;;;14.1;7.7;;;;;;;36.41;26.31934;1000.899;;;;
2019/07/25 11:48:27;;;;;;;12.1;5.9;;;;;;;36.03;26.18555;1000.82;;;;
